<?xml version="1.0" encoding="UTF-8" standalone="no" ?>
<gpx xmlns="http://www.topografix.com/GPX/1/1" xmlns:xsi="http://www.w3.org/2001/XMLSchema-instance" xsi:schemaLocation="http://www.topografix.com/GPX/1/1 http://www.topografix.com/GPX/1/1/gpx.xsd" version="1.1" creator="VisuGPX - https://www.visugpx.com">
  <metadata>
    <name>TPS 2017: la trace!</name>
    <desc><![CDATA[La traversée des pyrénées à ski édition 2017. Trace étape par étape (jour par jour).]]></desc>
  </metadata>
  <trk>
    <name><![CDATA[R7-04]]></name>
    <trkseg>
      <trkpt lat="42.84613" lon="-0.32914">
        <ele>2310.7</ele>
        <time>2017-03-23T07:36:00Z</time>
      </trkpt>
      <trkpt lat="42.84613" lon="-0.32914">
        <ele>2307.3</ele>
        <time>2017-03-23T07:36:05Z</time>
      </trkpt>
      <trkpt lat="42.84613" lon="-0.32914">
        <ele>2305.4</ele>
        <time>2017-03-23T07:36:07Z</time>
      </trkpt>
      <trkpt lat="42.84614" lon="-0.32914">
        <ele>2301.5</ele>
        <time>2017-03-23T07:36:09Z</time>
      </trkpt>
      <trkpt lat="42.84614" lon="-0.32907">
        <ele>2290.5</ele>
        <time>2017-03-23T07:36:29Z</time>
      </trkpt>
      <trkpt lat="42.84612" lon="-0.32912">
        <ele>2283.8</ele>
        <time>2017-03-23T07:36:46Z</time>
      </trkpt>
      <trkpt lat="42.8466" lon="-0.32969">
        <ele>2261.2</ele>
        <time>2017-03-23T07:37:26Z</time>
      </trkpt>
      <trkpt lat="42.84779" lon="-0.32896">
        <ele>2257.8</ele>
        <time>2017-03-23T07:41:22Z</time>
      </trkpt>
      <trkpt lat="42.84827" lon="-0.32976">
        <ele>2254</ele>
        <time>2017-03-23T07:45:04Z</time>
      </trkpt>
      <trkpt lat="42.84835" lon="-0.32963">
        <ele>2255.4</ele>
        <time>2017-03-23T07:45:37Z</time>
      </trkpt>
      <trkpt lat="42.84853" lon="-0.32991">
        <ele>2259.7</ele>
        <time>2017-03-23T07:48:40Z</time>
      </trkpt>
      <trkpt lat="42.8485" lon="-0.32989">
        <ele>2260.7</ele>
        <time>2017-03-23T07:49:02Z</time>
      </trkpt>
      <trkpt lat="42.84913" lon="-0.33037">
        <ele>2266.9</ele>
        <time>2017-03-23T07:51:45Z</time>
      </trkpt>
      <trkpt lat="42.84931" lon="-0.33093">
        <ele>2265.5</ele>
        <time>2017-03-23T07:54:05Z</time>
      </trkpt>
      <trkpt lat="42.84931" lon="-0.33089">
        <ele>2266.5</ele>
        <time>2017-03-23T07:54:45Z</time>
      </trkpt>
      <trkpt lat="42.84912" lon="-0.3314">
        <ele>2255.4</ele>
        <time>2017-03-23T07:55:12Z</time>
      </trkpt>
      <trkpt lat="42.8496" lon="-0.33201">
        <ele>2243.9</ele>
        <time>2017-03-23T07:55:50Z</time>
      </trkpt>
      <trkpt lat="42.84962" lon="-0.33198">
        <ele>2242.4</ele>
        <time>2017-03-23T07:56:15Z</time>
      </trkpt>
      <trkpt lat="42.85034" lon="-0.33266">
        <ele>2205.4</ele>
        <time>2017-03-23T08:00:38Z</time>
      </trkpt>
      <trkpt lat="42.85032" lon="-0.33262">
        <ele>2205.4</ele>
        <time>2017-03-23T08:01:56Z</time>
      </trkpt>
      <trkpt lat="42.85035" lon="-0.3327">
        <ele>2203.5</ele>
        <time>2017-03-23T08:02:20Z</time>
      </trkpt>
      <trkpt lat="42.85037" lon="-0.33267">
        <ele>2201.1</ele>
        <time>2017-03-23T08:02:22Z</time>
      </trkpt>
      <trkpt lat="42.85041" lon="-0.33272">
        <ele>2198.2</ele>
        <time>2017-03-23T08:02:27Z</time>
      </trkpt>
      <trkpt lat="42.85038" lon="-0.33275">
        <ele>2197.7</ele>
        <time>2017-03-23T08:02:51Z</time>
      </trkpt>
      <trkpt lat="42.8504" lon="-0.33276">
        <ele>2197.7</ele>
        <time>2017-03-23T08:03:19Z</time>
      </trkpt>
      <trkpt lat="42.85045" lon="-0.33291">
        <ele>2188.6</ele>
        <time>2017-03-23T08:03:58Z</time>
      </trkpt>
      <trkpt lat="42.85046" lon="-0.33286">
        <ele>2188.1</ele>
        <time>2017-03-23T08:04:16Z</time>
      </trkpt>
      <trkpt lat="42.85058" lon="-0.33311">
        <ele>2176.1</ele>
        <time>2017-03-23T08:04:25Z</time>
      </trkpt>
      <trkpt lat="42.85064" lon="-0.33309">
        <ele>2174.2</ele>
        <time>2017-03-23T08:04:45Z</time>
      </trkpt>
      <trkpt lat="42.85077" lon="-0.33593">
        <ele>2084.8</ele>
        <time>2017-03-23T08:07:42Z</time>
      </trkpt>
      <trkpt lat="42.85072" lon="-0.33591">
        <ele>2085.2</ele>
        <time>2017-03-23T08:08:05Z</time>
      </trkpt>
      <trkpt lat="42.85072" lon="-0.33591">
        <ele>2083.8</ele>
        <time>2017-03-23T08:08:26Z</time>
      </trkpt>
      <trkpt lat="42.85072" lon="-0.33591">
        <ele>2077.6</ele>
        <time>2017-03-23T08:08:29Z</time>
      </trkpt>
      <trkpt lat="42.85073" lon="-0.33592">
        <ele>2084.8</ele>
        <time>2017-03-23T08:08:31Z</time>
      </trkpt>
      <trkpt lat="42.85073" lon="-0.33592">
        <ele>2084.3</ele>
        <time>2017-03-23T08:08:33Z</time>
      </trkpt>
      <trkpt lat="42.85079" lon="-0.33595">
        <ele>2083.3</ele>
        <time>2017-03-23T08:08:58Z</time>
      </trkpt>
      <trkpt lat="42.85076" lon="-0.33593">
        <ele>2084.8</ele>
        <time>2017-03-23T08:09:35Z</time>
      </trkpt>
      <trkpt lat="42.85076" lon="-0.33594">
        <ele>2083.8</ele>
        <time>2017-03-23T08:09:59Z</time>
      </trkpt>
      <trkpt lat="42.85074" lon="-0.33591">
        <ele>2084.8</ele>
        <time>2017-03-23T08:10:24Z</time>
      </trkpt>
      <trkpt lat="42.85079" lon="-0.33596">
        <ele>2083.3</ele>
        <time>2017-03-23T08:11:09Z</time>
      </trkpt>
      <trkpt lat="42.85076" lon="-0.33591">
        <ele>2085.7</ele>
        <time>2017-03-23T08:12:02Z</time>
      </trkpt>
      <trkpt lat="42.85076" lon="-0.33591">
        <ele>2084.3</ele>
        <time>2017-03-23T08:12:25Z</time>
      </trkpt>
      <trkpt lat="42.85075" lon="-0.33591">
        <ele>2084.8</ele>
        <time>2017-03-23T08:12:52Z</time>
      </trkpt>
      <trkpt lat="42.85076" lon="-0.33591">
        <ele>2084.3</ele>
        <time>2017-03-23T08:13:12Z</time>
      </trkpt>
      <trkpt lat="42.85077" lon="-0.33591">
        <ele>2084.3</ele>
        <time>2017-03-23T08:13:44Z</time>
      </trkpt>
      <trkpt lat="42.85076" lon="-0.33593">
        <ele>2083.8</ele>
        <time>2017-03-23T08:14:27Z</time>
      </trkpt>
      <trkpt lat="42.85077" lon="-0.33593">
        <ele>2083.8</ele>
        <time>2017-03-23T08:14:48Z</time>
      </trkpt>
      <trkpt lat="42.85072" lon="-0.33591">
        <ele>2083.8</ele>
        <time>2017-03-23T08:15:32Z</time>
      </trkpt>
      <trkpt lat="42.85078" lon="-0.33594">
        <ele>2083.8</ele>
        <time>2017-03-23T08:16:40Z</time>
      </trkpt>
      <trkpt lat="42.85124" lon="-0.33741">
        <ele>2082.4</ele>
        <time>2017-03-23T08:18:56Z</time>
      </trkpt>
      <trkpt lat="42.85119" lon="-0.33742">
        <ele>2081.4</ele>
        <time>2017-03-23T08:19:05Z</time>
      </trkpt>
      <trkpt lat="42.8517" lon="-0.33852">
        <ele>2102.1</ele>
        <time>2017-03-23T08:22:18Z</time>
      </trkpt>
      <trkpt lat="42.85169" lon="-0.3385">
        <ele>2103.5</ele>
        <time>2017-03-23T08:23:12Z</time>
      </trkpt>
      <trkpt lat="42.8517" lon="-0.3385">
        <ele>2103.5</ele>
        <time>2017-03-23T08:23:52Z</time>
      </trkpt>
      <trkpt lat="42.85164" lon="-0.33858">
        <ele>2105.4</ele>
        <time>2017-03-23T08:25:20Z</time>
      </trkpt>
      <trkpt lat="42.85111" lon="-0.33676">
        <ele>2093.4</ele>
        <time>2017-03-23T08:28:21Z</time>
      </trkpt>
      <trkpt lat="42.85115" lon="-0.33682">
        <ele>2092.9</ele>
        <time>2017-03-23T08:29:32Z</time>
      </trkpt>
      <trkpt lat="42.85109" lon="-0.33676">
        <ele>2093.9</ele>
        <time>2017-03-23T08:30:07Z</time>
      </trkpt>
      <trkpt lat="42.8512" lon="-0.33675">
        <ele>2094.4</ele>
        <time>2017-03-23T08:31:14Z</time>
      </trkpt>
      <trkpt lat="42.85107" lon="-0.33676">
        <ele>2094.9</ele>
        <time>2017-03-23T08:32:40Z</time>
      </trkpt>
      <trkpt lat="42.85114" lon="-0.3367">
        <ele>2094.9</ele>
        <time>2017-03-23T08:33:35Z</time>
      </trkpt>
      <trkpt lat="42.85114" lon="-0.33675">
        <ele>2095.3</ele>
        <time>2017-03-23T08:34:00Z</time>
      </trkpt>
      <trkpt lat="42.85122" lon="-0.33666">
        <ele>2091.5</ele>
        <time>2017-03-23T08:34:12Z</time>
      </trkpt>
      <trkpt lat="42.85162" lon="-0.33616">
        <ele>2060.7</ele>
        <time>2017-03-23T08:36:21Z</time>
      </trkpt>
      <trkpt lat="42.85592" lon="-0.33564">
        <ele>1984.3</ele>
        <time>2017-03-23T08:44:09Z</time>
      </trkpt>
      <trkpt lat="42.85588" lon="-0.33561">
        <ele>1984.3</ele>
        <time>2017-03-23T08:45:11Z</time>
      </trkpt>
      <trkpt lat="42.85591" lon="-0.3356">
        <ele>1984.3</ele>
        <time>2017-03-23T08:45:44Z</time>
      </trkpt>
      <trkpt lat="42.85591" lon="-0.33561">
        <ele>1983.8</ele>
        <time>2017-03-23T08:46:12Z</time>
      </trkpt>
      <trkpt lat="42.85588" lon="-0.33561">
        <ele>1984.3</ele>
        <time>2017-03-23T08:46:42Z</time>
      </trkpt>
      <trkpt lat="42.8559" lon="-0.33558">
        <ele>1984.3</ele>
        <time>2017-03-23T08:47:15Z</time>
      </trkpt>
      <trkpt lat="42.85592" lon="-0.3356">
        <ele>1983.3</ele>
        <time>2017-03-23T08:48:00Z</time>
      </trkpt>
      <trkpt lat="42.85671" lon="-0.33463">
        <ele>1965.1</ele>
        <time>2017-03-23T08:50:09Z</time>
      </trkpt>
      <trkpt lat="42.85672" lon="-0.33465">
        <ele>1964.6</ele>
        <time>2017-03-23T08:50:37Z</time>
      </trkpt>
      <trkpt lat="42.85692" lon="-0.33441">
        <ele>1961.2</ele>
        <time>2017-03-23T08:51:35Z</time>
      </trkpt>
      <trkpt lat="42.85714" lon="-0.33457">
        <ele>1968.4</ele>
        <time>2017-03-23T08:53:41Z</time>
      </trkpt>
      <trkpt lat="42.85714" lon="-0.33458">
        <ele>1968.4</ele>
        <time>2017-03-23T08:53:48Z</time>
      </trkpt>
      <trkpt lat="42.8573" lon="-0.33448">
        <ele>1965.6</ele>
        <time>2017-03-23T08:54:06Z</time>
      </trkpt>
      <trkpt lat="42.85731" lon="-0.33449">
        <ele>1964.6</ele>
        <time>2017-03-23T08:54:22Z</time>
      </trkpt>
      <trkpt lat="42.85731" lon="-0.33449">
        <ele>1964.6</ele>
        <time>2017-03-23T08:54:46Z</time>
      </trkpt>
      <trkpt lat="42.85733" lon="-0.33449">
        <ele>1965.1</ele>
        <time>2017-03-23T08:55:12Z</time>
      </trkpt>
      <trkpt lat="42.85733" lon="-0.33456">
        <ele>1963.6</ele>
        <time>2017-03-23T08:55:32Z</time>
      </trkpt>
      <trkpt lat="42.85647" lon="-0.3345">
        <ele>1963.2</ele>
        <time>2017-03-23T08:57:06Z</time>
      </trkpt>
      <trkpt lat="42.85638" lon="-0.33422">
        <ele>1955.9</ele>
        <time>2017-03-23T08:57:17Z</time>
      </trkpt>
      <trkpt lat="42.85652" lon="-0.33405">
        <ele>1954</ele>
        <time>2017-03-23T08:57:30Z</time>
      </trkpt>
      <trkpt lat="42.85655" lon="-0.33414">
        <ele>1953.1</ele>
        <time>2017-03-23T08:57:44Z</time>
      </trkpt>
      <trkpt lat="42.85668" lon="-0.33412">
        <ele>1949.7</ele>
        <time>2017-03-23T08:57:56Z</time>
      </trkpt>
      <trkpt lat="42.85693" lon="-0.3337">
        <ele>1934.8</ele>
        <time>2017-03-23T08:58:08Z</time>
      </trkpt>
      <trkpt lat="42.8569" lon="-0.33377">
        <ele>1938.6</ele>
        <time>2017-03-23T08:58:26Z</time>
      </trkpt>
      <trkpt lat="42.85683" lon="-0.33371">
        <ele>1938.6</ele>
        <time>2017-03-23T08:58:38Z</time>
      </trkpt>
      <trkpt lat="42.85689" lon="-0.33379">
        <ele>1938.6</ele>
        <time>2017-03-23T08:58:47Z</time>
      </trkpt>
      <trkpt lat="42.85689" lon="-0.33378">
        <ele>1935.8</ele>
        <time>2017-03-23T08:58:49Z</time>
      </trkpt>
      <trkpt lat="42.85805" lon="-0.33378">
        <ele>1929</ele>
        <time>2017-03-23T09:01:15Z</time>
      </trkpt>
      <trkpt lat="42.85823" lon="-0.33352">
        <ele>1933.4</ele>
        <time>2017-03-23T09:02:08Z</time>
      </trkpt>
      <trkpt lat="42.85866" lon="-0.33377">
        <ele>1941</ele>
        <time>2017-03-23T09:04:04Z</time>
      </trkpt>
      <trkpt lat="42.85868" lon="-0.33374">
        <ele>1941.5</ele>
        <time>2017-03-23T09:04:08Z</time>
      </trkpt>
      <trkpt lat="42.85879" lon="-0.3339">
        <ele>1940.6</ele>
        <time>2017-03-23T09:07:53Z</time>
      </trkpt>
      <trkpt lat="42.85867" lon="-0.33387">
        <ele>1940.6</ele>
        <time>2017-03-23T09:08:53Z</time>
      </trkpt>
      <trkpt lat="42.85872" lon="-0.33384">
        <ele>1940.1</ele>
        <time>2017-03-23T09:09:24Z</time>
      </trkpt>
      <trkpt lat="42.8587" lon="-0.33398">
        <ele>1940.6</ele>
        <time>2017-03-23T09:10:52Z</time>
      </trkpt>
      <trkpt lat="42.85874" lon="-0.33393">
        <ele>1941.5</ele>
        <time>2017-03-23T09:11:25Z</time>
      </trkpt>
      <trkpt lat="42.85871" lon="-0.33397">
        <ele>1941.5</ele>
        <time>2017-03-23T09:11:58Z</time>
      </trkpt>
      <trkpt lat="42.85868" lon="-0.33389">
        <ele>1941.5</ele>
        <time>2017-03-23T09:13:02Z</time>
      </trkpt>
      <trkpt lat="42.85864" lon="-0.33398">
        <ele>1941</ele>
        <time>2017-03-23T09:13:29Z</time>
      </trkpt>
      <trkpt lat="42.85866" lon="-0.33394">
        <ele>1941.5</ele>
        <time>2017-03-23T09:14:28Z</time>
      </trkpt>
      <trkpt lat="42.85863" lon="-0.33396">
        <ele>1941.5</ele>
        <time>2017-03-23T09:15:03Z</time>
      </trkpt>
      <trkpt lat="42.85863" lon="-0.33393">
        <ele>1941</ele>
        <time>2017-03-23T09:15:30Z</time>
      </trkpt>
      <trkpt lat="42.85867" lon="-0.33398">
        <ele>1941.5</ele>
        <time>2017-03-23T09:15:47Z</time>
      </trkpt>
      <trkpt lat="42.85848" lon="-0.3346">
        <ele>1952.6</ele>
        <time>2017-03-23T09:18:18Z</time>
      </trkpt>
      <trkpt lat="42.85874" lon="-0.33475">
        <ele>1958.3</ele>
        <time>2017-03-23T09:20:21Z</time>
      </trkpt>
      <trkpt lat="42.85857" lon="-0.33477">
        <ele>1958.3</ele>
        <time>2017-03-23T09:21:34Z</time>
      </trkpt>
      <trkpt lat="42.85862" lon="-0.33468">
        <ele>1958.3</ele>
        <time>2017-03-23T09:22:25Z</time>
      </trkpt>
      <trkpt lat="42.85853" lon="-0.33474">
        <ele>1957.4</ele>
        <time>2017-03-23T09:22:44Z</time>
      </trkpt>
      <trkpt lat="42.85858" lon="-0.33471">
        <ele>1957.9</ele>
        <time>2017-03-23T09:23:28Z</time>
      </trkpt>
      <trkpt lat="42.85854" lon="-0.33471">
        <ele>1958.8</ele>
        <time>2017-03-23T09:23:47Z</time>
      </trkpt>
      <trkpt lat="42.85859" lon="-0.33476">
        <ele>1957.4</ele>
        <time>2017-03-23T09:24:14Z</time>
      </trkpt>
      <trkpt lat="42.85855" lon="-0.33471">
        <ele>1957.4</ele>
        <time>2017-03-23T09:25:13Z</time>
      </trkpt>
      <trkpt lat="42.85851" lon="-0.33475">
        <ele>1957.4</ele>
        <time>2017-03-23T09:25:52Z</time>
      </trkpt>
      <trkpt lat="42.85849" lon="-0.33469">
        <ele>1957.4</ele>
        <time>2017-03-23T09:26:33Z</time>
      </trkpt>
      <trkpt lat="42.8585" lon="-0.3347">
        <ele>1957.4</ele>
        <time>2017-03-23T09:27:03Z</time>
      </trkpt>
      <trkpt lat="42.85851" lon="-0.33465">
        <ele>1958.3</ele>
        <time>2017-03-23T09:27:52Z</time>
      </trkpt>
      <trkpt lat="42.85853" lon="-0.33468">
        <ele>1958.3</ele>
        <time>2017-03-23T09:28:23Z</time>
      </trkpt>
      <trkpt lat="42.85851" lon="-0.33462">
        <ele>1957.9</ele>
        <time>2017-03-23T09:28:55Z</time>
      </trkpt>
      <trkpt lat="42.85855" lon="-0.33466">
        <ele>1957.9</ele>
        <time>2017-03-23T09:30:16Z</time>
      </trkpt>
      <trkpt lat="42.85851" lon="-0.33466">
        <ele>1958.3</ele>
        <time>2017-03-23T09:30:51Z</time>
      </trkpt>
      <trkpt lat="42.85855" lon="-0.33465">
        <ele>1958.8</ele>
        <time>2017-03-23T09:31:51Z</time>
      </trkpt>
      <trkpt lat="42.85854" lon="-0.33467">
        <ele>1958.8</ele>
        <time>2017-03-23T09:32:26Z</time>
      </trkpt>
      <trkpt lat="42.85851" lon="-0.33464">
        <ele>1959.3</ele>
        <time>2017-03-23T09:32:57Z</time>
      </trkpt>
      <trkpt lat="42.85856" lon="-0.33466">
        <ele>1959.3</ele>
        <time>2017-03-23T09:34:00Z</time>
      </trkpt>
      <trkpt lat="42.85852" lon="-0.33465">
        <ele>1959.3</ele>
        <time>2017-03-23T09:34:26Z</time>
      </trkpt>
      <trkpt lat="42.85855" lon="-0.3347">
        <ele>1957.9</ele>
        <time>2017-03-23T09:35:55Z</time>
      </trkpt>
      <trkpt lat="42.85854" lon="-0.33468">
        <ele>1958.3</ele>
        <time>2017-03-23T09:36:15Z</time>
      </trkpt>
      <trkpt lat="42.85852" lon="-0.33469">
        <ele>1958.3</ele>
        <time>2017-03-23T09:36:47Z</time>
      </trkpt>
      <trkpt lat="42.85854" lon="-0.33469">
        <ele>1958.8</ele>
        <time>2017-03-23T09:37:11Z</time>
      </trkpt>
      <trkpt lat="42.85853" lon="-0.33471">
        <ele>1958.8</ele>
        <time>2017-03-23T09:37:35Z</time>
      </trkpt>
      <trkpt lat="42.85857" lon="-0.3347">
        <ele>1959.3</ele>
        <time>2017-03-23T09:38:48Z</time>
      </trkpt>
      <trkpt lat="42.85855" lon="-0.3347">
        <ele>1958.8</ele>
        <time>2017-03-23T09:39:36Z</time>
      </trkpt>
      <trkpt lat="42.85854" lon="-0.33466">
        <ele>1957.9</ele>
        <time>2017-03-23T09:41:06Z</time>
      </trkpt>
      <trkpt lat="42.85847" lon="-0.33469">
        <ele>1956.9</ele>
        <time>2017-03-23T09:41:58Z</time>
      </trkpt>
      <trkpt lat="42.85851" lon="-0.33473">
        <ele>1956.9</ele>
        <time>2017-03-23T09:42:17Z</time>
      </trkpt>
      <trkpt lat="42.85862" lon="-0.33369">
        <ele>1937.2</ele>
        <time>2017-03-23T09:45:05Z</time>
      </trkpt>
      <trkpt lat="42.8582" lon="-0.33359">
        <ele>1934.8</ele>
        <time>2017-03-23T09:45:39Z</time>
      </trkpt>
      <trkpt lat="42.85814" lon="-0.33381">
        <ele>1932.9</ele>
        <time>2017-03-23T09:45:58Z</time>
      </trkpt>
      <trkpt lat="42.85584" lon="-0.3317">
        <ele>1930.5</ele>
        <time>2017-03-23T09:55:39Z</time>
      </trkpt>
      <trkpt lat="42.85584" lon="-0.33172">
        <ele>1931.9</ele>
        <time>2017-03-23T09:55:58Z</time>
      </trkpt>
      <trkpt lat="42.85596" lon="-0.33067">
        <ele>1940.1</ele>
        <time>2017-03-23T09:57:44Z</time>
      </trkpt>
      <trkpt lat="42.85792" lon="-0.32895">
        <ele>1962.7</ele>
        <time>2017-03-23T10:03:45Z</time>
      </trkpt>
      <trkpt lat="42.8586" lon="-0.32878">
        <ele>1963.6</ele>
        <time>2017-03-23T10:05:56Z</time>
      </trkpt>
      <trkpt lat="42.85858" lon="-0.32878">
        <ele>1963.2</ele>
        <time>2017-03-23T10:06:30Z</time>
      </trkpt>
      <trkpt lat="42.8586" lon="-0.32875">
        <ele>1963.2</ele>
        <time>2017-03-23T10:06:47Z</time>
      </trkpt>
      <trkpt lat="42.85856" lon="-0.32881">
        <ele>1963.6</ele>
        <time>2017-03-23T10:08:08Z</time>
      </trkpt>
      <trkpt lat="42.85856" lon="-0.3288">
        <ele>1963.2</ele>
        <time>2017-03-23T10:08:44Z</time>
      </trkpt>
      <trkpt lat="42.86029" lon="-0.32822">
        <ele>1956.9</ele>
        <time>2017-03-23T10:12:49Z</time>
      </trkpt>
      <trkpt lat="42.86138" lon="-0.32946">
        <ele>1933.4</ele>
        <time>2017-03-23T10:15:45Z</time>
      </trkpt>
      <trkpt lat="42.86135" lon="-0.32943">
        <ele>1933.4</ele>
        <time>2017-03-23T10:16:08Z</time>
      </trkpt>
      <trkpt lat="42.86136" lon="-0.32944">
        <ele>1933.4</ele>
        <time>2017-03-23T10:16:35Z</time>
      </trkpt>
      <trkpt lat="42.86133" lon="-0.32942">
        <ele>1933.4</ele>
        <time>2017-03-23T10:17:12Z</time>
      </trkpt>
      <trkpt lat="42.86162" lon="-0.32961">
        <ele>1933.8</ele>
        <time>2017-03-23T10:17:51Z</time>
      </trkpt>
      <trkpt lat="42.86161" lon="-0.32964">
        <ele>1928.1</ele>
        <time>2017-03-23T10:18:00Z</time>
      </trkpt>
      <trkpt lat="42.86159" lon="-0.32958">
        <ele>1938.6</ele>
        <time>2017-03-23T10:18:11Z</time>
      </trkpt>
      <trkpt lat="42.86156" lon="-0.32964">
        <ele>1933.8</ele>
        <time>2017-03-23T10:18:12Z</time>
      </trkpt>
      <trkpt lat="42.86202" lon="-0.33066">
        <ele>1939.6</ele>
        <time>2017-03-23T10:22:34Z</time>
      </trkpt>
      <trkpt lat="42.86199" lon="-0.33061">
        <ele>1939.6</ele>
        <time>2017-03-23T10:22:59Z</time>
      </trkpt>
      <trkpt lat="42.86222" lon="-0.33167">
        <ele>1948.7</ele>
        <time>2017-03-23T10:26:23Z</time>
      </trkpt>
      <trkpt lat="42.86221" lon="-0.33156">
        <ele>1953.5</ele>
        <time>2017-03-23T10:27:03Z</time>
      </trkpt>
      <trkpt lat="42.86245" lon="-0.33357">
        <ele>1966.5</ele>
        <time>2017-03-23T10:31:40Z</time>
      </trkpt>
      <trkpt lat="42.86245" lon="-0.33348">
        <ele>1969.9</ele>
        <time>2017-03-23T10:31:55Z</time>
      </trkpt>
      <trkpt lat="42.86264" lon="-0.33344">
        <ele>1973.7</ele>
        <time>2017-03-23T10:33:26Z</time>
      </trkpt>
      <trkpt lat="42.86249" lon="-0.33351">
        <ele>1974.2</ele>
        <time>2017-03-23T10:35:34Z</time>
      </trkpt>
      <trkpt lat="42.86255" lon="-0.33352">
        <ele>1975.2</ele>
        <time>2017-03-23T10:36:19Z</time>
      </trkpt>
      <trkpt lat="42.86245" lon="-0.33353">
        <ele>1975.2</ele>
        <time>2017-03-23T10:36:53Z</time>
      </trkpt>
      <trkpt lat="42.86258" lon="-0.33354">
        <ele>1977.6</ele>
        <time>2017-03-23T10:37:44Z</time>
      </trkpt>
      <trkpt lat="42.86242" lon="-0.33435">
        <ele>2001.1</ele>
        <time>2017-03-23T10:41:35Z</time>
      </trkpt>
      <trkpt lat="42.86241" lon="-0.33432">
        <ele>1999.7</ele>
        <time>2017-03-23T10:41:49Z</time>
      </trkpt>
      <trkpt lat="42.8624" lon="-0.33437">
        <ele>2000.6</ele>
        <time>2017-03-23T10:42:18Z</time>
      </trkpt>
      <trkpt lat="42.86241" lon="-0.33434">
        <ele>2002.6</ele>
        <time>2017-03-23T10:42:46Z</time>
      </trkpt>
      <trkpt lat="42.8624" lon="-0.33434">
        <ele>2000.6</ele>
        <time>2017-03-23T10:43:12Z</time>
      </trkpt>
      <trkpt lat="42.86239" lon="-0.33439">
        <ele>2001.6</ele>
        <time>2017-03-23T10:43:32Z</time>
      </trkpt>
      <trkpt lat="42.86237" lon="-0.33437">
        <ele>1999.2</ele>
        <time>2017-03-23T10:43:36Z</time>
      </trkpt>
      <trkpt lat="42.86233" lon="-0.33446">
        <ele>1998.7</ele>
        <time>2017-03-23T10:44:44Z</time>
      </trkpt>
      <trkpt lat="42.86222" lon="-0.33433">
        <ele>1996.3</ele>
        <time>2017-03-23T10:45:08Z</time>
      </trkpt>
      <trkpt lat="42.8623" lon="-0.33431">
        <ele>1999.7</ele>
        <time>2017-03-23T10:45:54Z</time>
      </trkpt>
      <trkpt lat="42.86228" lon="-0.33425">
        <ele>1998.7</ele>
        <time>2017-03-23T10:46:12Z</time>
      </trkpt>
      <trkpt lat="42.86238" lon="-0.33446">
        <ele>2000.2</ele>
        <time>2017-03-23T10:47:24Z</time>
      </trkpt>
      <trkpt lat="42.86246" lon="-0.33443">
        <ele>2001.6</ele>
        <time>2017-03-23T10:48:00Z</time>
      </trkpt>
      <trkpt lat="42.86235" lon="-0.33438">
        <ele>1998.7</ele>
        <time>2017-03-23T10:48:33Z</time>
      </trkpt>
      <trkpt lat="42.86235" lon="-0.33439">
        <ele>1998.7</ele>
        <time>2017-03-23T10:48:58Z</time>
      </trkpt>
      <trkpt lat="42.86235" lon="-0.33437">
        <ele>1997.8</ele>
        <time>2017-03-23T10:49:12Z</time>
      </trkpt>
      <trkpt lat="42.86221" lon="-0.33438">
        <ele>1997.3</ele>
        <time>2017-03-23T10:49:49Z</time>
      </trkpt>
      <trkpt lat="42.86224" lon="-0.33442">
        <ele>1998.7</ele>
        <time>2017-03-23T10:50:10Z</time>
      </trkpt>
      <trkpt lat="42.8621" lon="-0.33416">
        <ele>1997.8</ele>
        <time>2017-03-23T10:50:56Z</time>
      </trkpt>
      <trkpt lat="42.86229" lon="-0.33437">
        <ele>1993.4</ele>
        <time>2017-03-23T11:19:04Z</time>
      </trkpt>
      <trkpt lat="42.8623" lon="-0.33434">
        <ele>1997.8</ele>
        <time>2017-03-23T11:19:06Z</time>
      </trkpt>
      <trkpt lat="42.86236" lon="-0.33438">
        <ele>1997.3</ele>
        <time>2017-03-23T11:19:26Z</time>
      </trkpt>
      <trkpt lat="42.8623" lon="-0.3343">
        <ele>1994.9</ele>
        <time>2017-03-23T11:20:21Z</time>
      </trkpt>
      <trkpt lat="42.86234" lon="-0.33436">
        <ele>1994.4</ele>
        <time>2017-03-23T11:21:06Z</time>
      </trkpt>
      <trkpt lat="42.86233" lon="-0.33435">
        <ele>1995.8</ele>
        <time>2017-03-23T11:21:09Z</time>
      </trkpt>
      <trkpt lat="42.86237" lon="-0.33433">
        <ele>1997.3</ele>
        <time>2017-03-23T11:21:25Z</time>
      </trkpt>
      <trkpt lat="42.86238" lon="-0.33437">
        <ele>1991</ele>
        <time>2017-03-23T11:22:19Z</time>
      </trkpt>
      <trkpt lat="42.86237" lon="-0.33437">
        <ele>1999.2</ele>
        <time>2017-03-23T11:22:23Z</time>
      </trkpt>
      <trkpt lat="42.86238" lon="-0.33434">
        <ele>2000.2</ele>
        <time>2017-03-23T11:22:25Z</time>
      </trkpt>
      <trkpt lat="42.86239" lon="-0.33436">
        <ele>1996.8</ele>
        <time>2017-03-23T11:22:29Z</time>
      </trkpt>
      <trkpt lat="42.86239" lon="-0.33435">
        <ele>1998.2</ele>
        <time>2017-03-23T11:22:34Z</time>
      </trkpt>
      <trkpt lat="42.86247" lon="-0.33481">
        <ele>2006.9</ele>
        <time>2017-03-23T11:24:36Z</time>
      </trkpt>
      <trkpt lat="42.86242" lon="-0.33466">
        <ele>2005</ele>
        <time>2017-03-23T11:24:58Z</time>
      </trkpt>
      <trkpt lat="42.86235" lon="-0.33472">
        <ele>1999.2</ele>
        <time>2017-03-23T11:25:09Z</time>
      </trkpt>
      <trkpt lat="42.86222" lon="-0.33591">
        <ele>1985.7</ele>
        <time>2017-03-23T11:27:14Z</time>
      </trkpt>
      <trkpt lat="42.86221" lon="-0.33591">
        <ele>1987.7</ele>
        <time>2017-03-23T11:27:16Z</time>
      </trkpt>
      <trkpt lat="42.86295" lon="-0.33815">
        <ele>2008.8</ele>
        <time>2017-03-23T11:33:00Z</time>
      </trkpt>
      <trkpt lat="42.86308" lon="-0.33819">
        <ele>2011.2</ele>
        <time>2017-03-23T11:33:18Z</time>
      </trkpt>
      <trkpt lat="42.86307" lon="-0.33818">
        <ele>2012.7</ele>
        <time>2017-03-23T11:33:24Z</time>
      </trkpt>
      <trkpt lat="42.86308" lon="-0.33818">
        <ele>2010.7</ele>
        <time>2017-03-23T11:33:26Z</time>
      </trkpt>
      <trkpt lat="42.86308" lon="-0.33817">
        <ele>2010.7</ele>
        <time>2017-03-23T11:33:57Z</time>
      </trkpt>
      <trkpt lat="42.86445" lon="-0.33902">
        <ele>2024.7</ele>
        <time>2017-03-23T11:38:17Z</time>
      </trkpt>
      <trkpt lat="42.86443" lon="-0.33906">
        <ele>2026.1</ele>
        <time>2017-03-23T11:38:24Z</time>
      </trkpt>
      <trkpt lat="42.86501" lon="-0.33981">
        <ele>2045.3</ele>
        <time>2017-03-23T11:41:55Z</time>
      </trkpt>
      <trkpt lat="42.86497" lon="-0.33978">
        <ele>2046.3</ele>
        <time>2017-03-23T11:42:19Z</time>
      </trkpt>
      <trkpt lat="42.86712" lon="-0.34031">
        <ele>2074.2</ele>
        <time>2017-03-23T11:49:45Z</time>
      </trkpt>
      <trkpt lat="42.86737" lon="-0.34054">
        <ele>2080.9</ele>
        <time>2017-03-23T11:50:48Z</time>
      </trkpt>
      <trkpt lat="42.86735" lon="-0.3422">
        <ele>2093.9</ele>
        <time>2017-03-23T11:54:55Z</time>
      </trkpt>
      <trkpt lat="42.86735" lon="-0.34217">
        <ele>2093.4</ele>
        <time>2017-03-23T11:55:07Z</time>
      </trkpt>
      <trkpt lat="42.86735" lon="-0.34217">
        <ele>2093.9</ele>
        <time>2017-03-23T11:55:08Z</time>
      </trkpt>
      <trkpt lat="42.86735" lon="-0.34218">
        <ele>2092.5</ele>
        <time>2017-03-23T11:55:11Z</time>
      </trkpt>
      <trkpt lat="42.86752" lon="-0.34149">
        <ele>2080.4</ele>
        <time>2017-03-23T11:56:26Z</time>
      </trkpt>
      <trkpt lat="42.86772" lon="-0.34151">
        <ele>2078</ele>
        <time>2017-03-23T11:57:01Z</time>
      </trkpt>
      <trkpt lat="42.86756" lon="-0.34149">
        <ele>2080</ele>
        <time>2017-03-23T11:57:26Z</time>
      </trkpt>
      <trkpt lat="42.86732" lon="-0.34215">
        <ele>2091.5</ele>
        <time>2017-03-23T11:59:17Z</time>
      </trkpt>
      <trkpt lat="42.86733" lon="-0.34214">
        <ele>2098.7</ele>
        <time>2017-03-23T11:59:21Z</time>
      </trkpt>
      <trkpt lat="42.86733" lon="-0.34217">
        <ele>2092</ele>
        <time>2017-03-23T11:59:23Z</time>
      </trkpt>
      <trkpt lat="42.86729" lon="-0.34218">
        <ele>2091</ele>
        <time>2017-03-23T12:00:09Z</time>
      </trkpt>
      <trkpt lat="42.86728" lon="-0.34214">
        <ele>2091</ele>
        <time>2017-03-23T12:00:37Z</time>
      </trkpt>
      <trkpt lat="42.86731" lon="-0.34216">
        <ele>2091.5</ele>
        <time>2017-03-23T12:01:36Z</time>
      </trkpt>
      <trkpt lat="42.86731" lon="-0.34215">
        <ele>2091.5</ele>
        <time>2017-03-23T12:02:04Z</time>
      </trkpt>
      <trkpt lat="42.86732" lon="-0.34215">
        <ele>2091</ele>
        <time>2017-03-23T12:02:30Z</time>
      </trkpt>
      <trkpt lat="42.86733" lon="-0.34216">
        <ele>2091.5</ele>
        <time>2017-03-23T12:03:00Z</time>
      </trkpt>
      <trkpt lat="42.86734" lon="-0.34216">
        <ele>2096.8</ele>
        <time>2017-03-23T12:03:24Z</time>
      </trkpt>
      <trkpt lat="42.86734" lon="-0.34216">
        <ele>2094.9</ele>
        <time>2017-03-23T12:03:25Z</time>
      </trkpt>
      <trkpt lat="42.86734" lon="-0.34216">
        <ele>2093.9</ele>
        <time>2017-03-23T12:03:27Z</time>
      </trkpt>
      <trkpt lat="42.86732" lon="-0.34216">
        <ele>2092</ele>
        <time>2017-03-23T12:03:48Z</time>
      </trkpt>
      <trkpt lat="42.86734" lon="-0.34217">
        <ele>2092.9</ele>
        <time>2017-03-23T12:04:20Z</time>
      </trkpt>
      <trkpt lat="42.86732" lon="-0.34215">
        <ele>2091.5</ele>
        <time>2017-03-23T12:04:48Z</time>
      </trkpt>
      <trkpt lat="42.86733" lon="-0.34217">
        <ele>2091</ele>
        <time>2017-03-23T12:05:10Z</time>
      </trkpt>
      <trkpt lat="42.86733" lon="-0.34212">
        <ele>2090</ele>
        <time>2017-03-23T12:05:32Z</time>
      </trkpt>
      <trkpt lat="42.86733" lon="-0.34214">
        <ele>2092.5</ele>
        <time>2017-03-23T12:05:39Z</time>
      </trkpt>
      <trkpt lat="42.86732" lon="-0.34213">
        <ele>2091.5</ele>
        <time>2017-03-23T12:05:58Z</time>
      </trkpt>
      <trkpt lat="42.86735" lon="-0.34223">
        <ele>2091</ele>
        <time>2017-03-23T12:06:47Z</time>
      </trkpt>
      <trkpt lat="42.86733" lon="-0.34222">
        <ele>2091</ele>
        <time>2017-03-23T12:07:03Z</time>
      </trkpt>
      <trkpt lat="42.86725" lon="-0.34259">
        <ele>2080</ele>
        <time>2017-03-23T12:07:25Z</time>
      </trkpt>
      <trkpt lat="42.86733" lon="-0.3426">
        <ele>2075.6</ele>
        <time>2017-03-23T12:07:29Z</time>
      </trkpt>
      <trkpt lat="42.86734" lon="-0.34268">
        <ele>2071.3</ele>
        <time>2017-03-23T12:07:32Z</time>
      </trkpt>
      <trkpt lat="42.86734" lon="-0.34267">
        <ele>2069.9</ele>
        <time>2017-03-23T12:07:33Z</time>
      </trkpt>
      <trkpt lat="42.86774" lon="-0.34331">
        <ele>2046.3</ele>
        <time>2017-03-23T12:07:45Z</time>
      </trkpt>
      <trkpt lat="42.86806" lon="-0.3437">
        <ele>2036.7</ele>
        <time>2017-03-23T12:08:52Z</time>
      </trkpt>
      <trkpt lat="42.86803" lon="-0.34371">
        <ele>2038.1</ele>
        <time>2017-03-23T12:09:27Z</time>
      </trkpt>
      <trkpt lat="42.86865" lon="-0.34443">
        <ele>2030</ele>
        <time>2017-03-23T12:11:41Z</time>
      </trkpt>
      <trkpt lat="42.86865" lon="-0.34442">
        <ele>2031.9</ele>
        <time>2017-03-23T12:12:04Z</time>
      </trkpt>
      <trkpt lat="42.86864" lon="-0.34442">
        <ele>2032.4</ele>
        <time>2017-03-23T12:12:25Z</time>
      </trkpt>
      <trkpt lat="42.86866" lon="-0.34445">
        <ele>2031.9</ele>
        <time>2017-03-23T12:13:10Z</time>
      </trkpt>
      <trkpt lat="42.86864" lon="-0.34444">
        <ele>2032.4</ele>
        <time>2017-03-23T12:13:37Z</time>
      </trkpt>
      <trkpt lat="42.86866" lon="-0.34442">
        <ele>2032.8</ele>
        <time>2017-03-23T12:14:02Z</time>
      </trkpt>
      <trkpt lat="42.86866" lon="-0.34443">
        <ele>2031.9</ele>
        <time>2017-03-23T12:14:56Z</time>
      </trkpt>
      <trkpt lat="42.86864" lon="-0.34444">
        <ele>2031.4</ele>
        <time>2017-03-23T12:15:22Z</time>
      </trkpt>
      <trkpt lat="42.86866" lon="-0.34444">
        <ele>2030.9</ele>
        <time>2017-03-23T12:16:07Z</time>
      </trkpt>
      <trkpt lat="42.86866" lon="-0.34442">
        <ele>2030.9</ele>
        <time>2017-03-23T12:17:01Z</time>
      </trkpt>
      <trkpt lat="42.86865" lon="-0.34444">
        <ele>2031.4</ele>
        <time>2017-03-23T12:17:24Z</time>
      </trkpt>
      <trkpt lat="42.86865" lon="-0.34442">
        <ele>2031.9</ele>
        <time>2017-03-23T12:17:44Z</time>
      </trkpt>
      <trkpt lat="42.86867" lon="-0.34441">
        <ele>2031.9</ele>
        <time>2017-03-23T12:18:08Z</time>
      </trkpt>
      <trkpt lat="42.86867" lon="-0.34444">
        <ele>2030.9</ele>
        <time>2017-03-23T12:18:41Z</time>
      </trkpt>
      <trkpt lat="42.86865" lon="-0.34441">
        <ele>2031.4</ele>
        <time>2017-03-23T12:19:16Z</time>
      </trkpt>
      <trkpt lat="42.86865" lon="-0.34443">
        <ele>2030.9</ele>
        <time>2017-03-23T12:19:43Z</time>
      </trkpt>
      <trkpt lat="42.86865" lon="-0.34442">
        <ele>2030.4</ele>
        <time>2017-03-23T12:19:55Z</time>
      </trkpt>
      <trkpt lat="42.86863" lon="-0.34443">
        <ele>2030.9</ele>
        <time>2017-03-23T12:20:15Z</time>
      </trkpt>
      <trkpt lat="42.86891" lon="-0.34465">
        <ele>2033.3</ele>
        <time>2017-03-23T12:22:22Z</time>
      </trkpt>
      <trkpt lat="42.86931" lon="-0.34604">
        <ele>2068.9</ele>
        <time>2017-03-23T12:26:21Z</time>
      </trkpt>
      <trkpt lat="42.86914" lon="-0.34606">
        <ele>2073.2</ele>
        <time>2017-03-23T12:26:57Z</time>
      </trkpt>
      <trkpt lat="42.86923" lon="-0.3462">
        <ele>2078</ele>
        <time>2017-03-23T12:27:28Z</time>
      </trkpt>
      <trkpt lat="42.86918" lon="-0.34623">
        <ele>2079.5</ele>
        <time>2017-03-23T12:27:45Z</time>
      </trkpt>
      <trkpt lat="42.8693" lon="-0.34639">
        <ele>2086.7</ele>
        <time>2017-03-23T12:28:44Z</time>
      </trkpt>
      <trkpt lat="42.86907" lon="-0.34655">
        <ele>2093.4</ele>
        <time>2017-03-23T12:30:01Z</time>
      </trkpt>
      <trkpt lat="42.86921" lon="-0.34665">
        <ele>2096.8</ele>
        <time>2017-03-23T12:30:38Z</time>
      </trkpt>
      <trkpt lat="42.86839" lon="-0.34758">
        <ele>2140.5</ele>
        <time>2017-03-23T12:38:24Z</time>
      </trkpt>
      <trkpt lat="42.86838" lon="-0.34756">
        <ele>2141</ele>
        <time>2017-03-23T12:38:51Z</time>
      </trkpt>
      <trkpt lat="42.86843" lon="-0.34757">
        <ele>2141</ele>
        <time>2017-03-23T12:39:47Z</time>
      </trkpt>
      <trkpt lat="42.86842" lon="-0.34757">
        <ele>2140</ele>
        <time>2017-03-23T12:40:13Z</time>
      </trkpt>
      <trkpt lat="42.86842" lon="-0.34756">
        <ele>2139.6</ele>
        <time>2017-03-23T12:40:28Z</time>
      </trkpt>
      <trkpt lat="42.86842" lon="-0.34756">
        <ele>2139.6</ele>
        <time>2017-03-23T12:40:55Z</time>
      </trkpt>
      <trkpt lat="42.86841" lon="-0.34756">
        <ele>2139.6</ele>
        <time>2017-03-23T12:41:21Z</time>
      </trkpt>
      <trkpt lat="42.86843" lon="-0.34757">
        <ele>2140.5</ele>
        <time>2017-03-23T12:41:46Z</time>
      </trkpt>
      <trkpt lat="42.86843" lon="-0.34756">
        <ele>2140</ele>
        <time>2017-03-23T12:42:18Z</time>
      </trkpt>
      <trkpt lat="42.86842" lon="-0.34757">
        <ele>2139.6</ele>
        <time>2017-03-23T12:42:52Z</time>
      </trkpt>
      <trkpt lat="42.86843" lon="-0.34756">
        <ele>2140</ele>
        <time>2017-03-23T12:43:24Z</time>
      </trkpt>
      <trkpt lat="42.86851" lon="-0.34759">
        <ele>2141</ele>
        <time>2017-03-23T12:44:57Z</time>
      </trkpt>
      <trkpt lat="42.86802" lon="-0.34878">
        <ele>2144.4</ele>
        <time>2017-03-23T12:48:00Z</time>
      </trkpt>
      <trkpt lat="42.86807" lon="-0.3488">
        <ele>2143.4</ele>
        <time>2017-03-23T12:48:42Z</time>
      </trkpt>
      <trkpt lat="42.86641" lon="-0.35194">
        <ele>2171.3</ele>
        <time>2017-03-23T12:55:39Z</time>
      </trkpt>
      <trkpt lat="42.86638" lon="-0.35189">
        <ele>2171.3</ele>
        <time>2017-03-23T12:56:18Z</time>
      </trkpt>
      <trkpt lat="42.86634" lon="-0.35192">
        <ele>2171.3</ele>
        <time>2017-03-23T12:57:10Z</time>
      </trkpt>
      <trkpt lat="42.8664" lon="-0.35187">
        <ele>2172.7</ele>
        <time>2017-03-23T12:57:56Z</time>
      </trkpt>
      <trkpt lat="42.86497" lon="-0.35373">
        <ele>2213.6</ele>
        <time>2017-03-23T13:03:26Z</time>
      </trkpt>
      <trkpt lat="42.86502" lon="-0.35372">
        <ele>2213.1</ele>
        <time>2017-03-23T13:04:02Z</time>
      </trkpt>
      <trkpt lat="42.86493" lon="-0.35408">
        <ele>2219.3</ele>
        <time>2017-03-23T13:05:17Z</time>
      </trkpt>
      <trkpt lat="42.86468" lon="-0.35389">
        <ele>2224.6</ele>
        <time>2017-03-23T13:06:13Z</time>
      </trkpt>
      <trkpt lat="42.86469" lon="-0.35393">
        <ele>2225.6</ele>
        <time>2017-03-23T13:06:31Z</time>
      </trkpt>
      <trkpt lat="42.86462" lon="-0.35378">
        <ele>2229.9</ele>
        <time>2017-03-23T13:07:13Z</time>
      </trkpt>
      <trkpt lat="42.86417" lon="-0.35403">
        <ele>2246.3</ele>
        <time>2017-03-23T13:10:14Z</time>
      </trkpt>
      <trkpt lat="42.8641" lon="-0.35424">
        <ele>2250.1</ele>
        <time>2017-03-23T13:10:54Z</time>
      </trkpt>
      <trkpt lat="42.86392" lon="-0.35417">
        <ele>2255.9</ele>
        <time>2017-03-23T13:11:46Z</time>
      </trkpt>
      <trkpt lat="42.86394" lon="-0.35424">
        <ele>2256.4</ele>
        <time>2017-03-23T13:12:04Z</time>
      </trkpt>
      <trkpt lat="42.86394" lon="-0.35423">
        <ele>2257.3</ele>
        <time>2017-03-23T13:12:26Z</time>
      </trkpt>
      <trkpt lat="42.86391" lon="-0.3543">
        <ele>2257.8</ele>
        <time>2017-03-23T13:12:40Z</time>
      </trkpt>
      <trkpt lat="42.86362" lon="-0.35434">
        <ele>2266</ele>
        <time>2017-03-23T13:14:01Z</time>
      </trkpt>
      <trkpt lat="42.86364" lon="-0.35445">
        <ele>2267.4</ele>
        <time>2017-03-23T13:14:31Z</time>
      </trkpt>
      <trkpt lat="42.86363" lon="-0.35444">
        <ele>2267.9</ele>
        <time>2017-03-23T13:14:45Z</time>
      </trkpt>
      <trkpt lat="42.86386" lon="-0.35488">
        <ele>2278.5</ele>
        <time>2017-03-23T13:17:47Z</time>
      </trkpt>
      <trkpt lat="42.86366" lon="-0.35488">
        <ele>2283.3</ele>
        <time>2017-03-23T13:18:31Z</time>
      </trkpt>
      <trkpt lat="42.86377" lon="-0.35511">
        <ele>2289.5</ele>
        <time>2017-03-23T13:19:37Z</time>
      </trkpt>
      <trkpt lat="42.86351" lon="-0.3551">
        <ele>2297.2</ele>
        <time>2017-03-23T13:20:47Z</time>
      </trkpt>
      <trkpt lat="42.86363" lon="-0.35536">
        <ele>2301.5</ele>
        <time>2017-03-23T13:21:51Z</time>
      </trkpt>
      <trkpt lat="42.8633" lon="-0.35528">
        <ele>2310.2</ele>
        <time>2017-03-23T13:23:07Z</time>
      </trkpt>
      <trkpt lat="42.86341" lon="-0.35553">
        <ele>2313.6</ele>
        <time>2017-03-23T13:23:49Z</time>
      </trkpt>
      <trkpt lat="42.86284" lon="-0.35573">
        <ele>2336.6</ele>
        <time>2017-03-23T13:27:07Z</time>
      </trkpt>
      <trkpt lat="42.863" lon="-0.35616">
        <ele>2345.3</ele>
        <time>2017-03-23T13:28:37Z</time>
      </trkpt>
      <trkpt lat="42.86276" lon="-0.35616">
        <ele>2351</ele>
        <time>2017-03-23T13:29:43Z</time>
      </trkpt>
      <trkpt lat="42.86276" lon="-0.35616">
        <ele>2351.5</ele>
        <time>2017-03-23T13:30:02Z</time>
      </trkpt>
      <trkpt lat="42.86273" lon="-0.35618">
        <ele>2351.5</ele>
        <time>2017-03-23T13:30:15Z</time>
      </trkpt>
      <trkpt lat="42.86274" lon="-0.35614">
        <ele>2351</ele>
        <time>2017-03-23T13:30:31Z</time>
      </trkpt>
      <trkpt lat="42.86271" lon="-0.35616">
        <ele>2351.5</ele>
        <time>2017-03-23T13:30:45Z</time>
      </trkpt>
      <trkpt lat="42.86273" lon="-0.35619">
        <ele>2348.6</ele>
        <time>2017-03-23T13:30:50Z</time>
      </trkpt>
      <trkpt lat="42.86278" lon="-0.35611">
        <ele>2350.6</ele>
        <time>2017-03-23T13:31:34Z</time>
      </trkpt>
      <trkpt lat="42.8627" lon="-0.35613">
        <ele>2350.1</ele>
        <time>2017-03-23T13:32:38Z</time>
      </trkpt>
      <trkpt lat="42.86273" lon="-0.35609">
        <ele>2349.6</ele>
        <time>2017-03-23T13:33:10Z</time>
      </trkpt>
      <trkpt lat="42.86274" lon="-0.3561">
        <ele>2350.1</ele>
        <time>2017-03-23T13:33:51Z</time>
      </trkpt>
      <trkpt lat="42.86272" lon="-0.35612">
        <ele>2349.6</ele>
        <time>2017-03-23T13:34:53Z</time>
      </trkpt>
      <trkpt lat="42.86278" lon="-0.35613">
        <ele>2349.6</ele>
        <time>2017-03-23T13:35:22Z</time>
      </trkpt>
      <trkpt lat="42.86275" lon="-0.35613">
        <ele>2349.6</ele>
        <time>2017-03-23T13:35:50Z</time>
      </trkpt>
      <trkpt lat="42.86284" lon="-0.35611">
        <ele>2349.6</ele>
        <time>2017-03-23T13:37:01Z</time>
      </trkpt>
      <trkpt lat="42.8628" lon="-0.35612">
        <ele>2349.6</ele>
        <time>2017-03-23T13:37:30Z</time>
      </trkpt>
      <trkpt lat="42.8628" lon="-0.35612">
        <ele>2349.6</ele>
        <time>2017-03-23T13:38:05Z</time>
      </trkpt>
      <trkpt lat="42.86272" lon="-0.35612">
        <ele>2349.1</ele>
        <time>2017-03-23T13:38:44Z</time>
      </trkpt>
      <trkpt lat="42.86275" lon="-0.3561">
        <ele>2349.1</ele>
        <time>2017-03-23T13:39:20Z</time>
      </trkpt>
      <trkpt lat="42.86271" lon="-0.35611">
        <ele>2349.6</ele>
        <time>2017-03-23T13:40:43Z</time>
      </trkpt>
      <trkpt lat="42.86273" lon="-0.35609">
        <ele>2349.6</ele>
        <time>2017-03-23T13:41:23Z</time>
      </trkpt>
      <trkpt lat="42.86272" lon="-0.35611">
        <ele>2349.6</ele>
        <time>2017-03-23T13:42:04Z</time>
      </trkpt>
      <trkpt lat="42.86275" lon="-0.35612">
        <ele>2351</ele>
        <time>2017-03-23T13:42:21Z</time>
      </trkpt>
      <trkpt lat="42.86271" lon="-0.35618">
        <ele>2350.6</ele>
        <time>2017-03-23T13:42:59Z</time>
      </trkpt>
      <trkpt lat="42.86272" lon="-0.35617">
        <ele>2349.1</ele>
        <time>2017-03-23T13:43:16Z</time>
      </trkpt>
      <trkpt lat="42.86257" lon="-0.35642">
        <ele>2345.3</ele>
        <time>2017-03-23T13:43:34Z</time>
      </trkpt>
      <trkpt lat="42.86317" lon="-0.3596">
        <ele>2285.2</ele>
        <time>2017-03-23T13:44:13Z</time>
      </trkpt>
      <trkpt lat="42.86318" lon="-0.3596">
        <ele>2282.3</ele>
        <time>2017-03-23T13:44:15Z</time>
      </trkpt>
      <trkpt lat="42.86317" lon="-0.3596">
        <ele>2283.3</ele>
        <time>2017-03-23T13:44:28Z</time>
      </trkpt>
      <trkpt lat="42.86318" lon="-0.3596">
        <ele>2283.8</ele>
        <time>2017-03-23T13:44:55Z</time>
      </trkpt>
      <trkpt lat="42.86318" lon="-0.35958">
        <ele>2283.3</ele>
        <time>2017-03-23T13:45:39Z</time>
      </trkpt>
      <trkpt lat="42.8656" lon="-0.36617">
        <ele>2139.6</ele>
        <time>2017-03-23T13:53:29Z</time>
      </trkpt>
      <trkpt lat="42.86559" lon="-0.36615">
        <ele>2139.6</ele>
        <time>2017-03-23T13:54:15Z</time>
      </trkpt>
      <trkpt lat="42.86563" lon="-0.36624">
        <ele>2139.6</ele>
        <time>2017-03-23T13:54:59Z</time>
      </trkpt>
      <trkpt lat="42.86561" lon="-0.36624">
        <ele>2139.1</ele>
        <time>2017-03-23T13:55:16Z</time>
      </trkpt>
      <trkpt lat="42.86561" lon="-0.36628">
        <ele>2140</ele>
        <time>2017-03-23T13:55:50Z</time>
      </trkpt>
      <trkpt lat="42.86559" lon="-0.36627">
        <ele>2140</ele>
        <time>2017-03-23T13:56:33Z</time>
      </trkpt>
      <trkpt lat="42.86669" lon="-0.3671">
        <ele>2084.8</ele>
        <time>2017-03-23T13:57:55Z</time>
      </trkpt>
      <trkpt lat="42.86672" lon="-0.36723">
        <ele>2081.4</ele>
        <time>2017-03-23T13:57:58Z</time>
      </trkpt>
      <trkpt lat="42.86671" lon="-0.36723">
        <ele>2082.8</ele>
        <time>2017-03-23T13:58:11Z</time>
      </trkpt>
      <trkpt lat="42.8682" lon="-0.36783">
        <ele>2055.4</ele>
        <time>2017-03-23T13:58:58Z</time>
      </trkpt>
      <trkpt lat="42.86819" lon="-0.36785">
        <ele>2054.5</ele>
        <time>2017-03-23T13:59:27Z</time>
      </trkpt>
      <trkpt lat="42.86819" lon="-0.36784">
        <ele>2055</ele>
        <time>2017-03-23T13:59:53Z</time>
      </trkpt>
      <trkpt lat="42.86815" lon="-0.36778">
        <ele>2054.5</ele>
        <time>2017-03-23T14:00:41Z</time>
      </trkpt>
      <trkpt lat="42.86816" lon="-0.3678">
        <ele>2055.4</ele>
        <time>2017-03-23T14:01:06Z</time>
      </trkpt>
      <trkpt lat="42.86816" lon="-0.36779">
        <ele>2056.4</ele>
        <time>2017-03-23T14:01:30Z</time>
      </trkpt>
      <trkpt lat="42.86818" lon="-0.3678">
        <ele>2055.4</ele>
        <time>2017-03-23T14:02:01Z</time>
      </trkpt>
      <trkpt lat="42.86817" lon="-0.36779">
        <ele>2055.4</ele>
        <time>2017-03-23T14:02:29Z</time>
      </trkpt>
      <trkpt lat="42.86819" lon="-0.36779">
        <ele>2055.4</ele>
        <time>2017-03-23T14:03:12Z</time>
      </trkpt>
      <trkpt lat="42.86814" lon="-0.36769">
        <ele>2054.5</ele>
        <time>2017-03-23T14:05:09Z</time>
      </trkpt>
      <trkpt lat="42.86868" lon="-0.36762">
        <ele>2030.9</ele>
        <time>2017-03-23T14:05:23Z</time>
      </trkpt>
      <trkpt lat="42.87054" lon="-0.37256">
        <ele>1904</ele>
        <time>2017-03-23T14:07:24Z</time>
      </trkpt>
      <trkpt lat="42.87053" lon="-0.37258">
        <ele>1903.6</ele>
        <time>2017-03-23T14:07:33Z</time>
      </trkpt>
      <trkpt lat="42.87051" lon="-0.37254">
        <ele>1902.6</ele>
        <time>2017-03-23T14:08:40Z</time>
      </trkpt>
      <trkpt lat="42.87051" lon="-0.37255">
        <ele>1902.6</ele>
        <time>2017-03-23T14:09:10Z</time>
      </trkpt>
      <trkpt lat="42.8705" lon="-0.37253">
        <ele>1902.1</ele>
        <time>2017-03-23T14:09:50Z</time>
      </trkpt>
      <trkpt lat="42.87051" lon="-0.37254">
        <ele>1902.6</ele>
        <time>2017-03-23T14:10:14Z</time>
      </trkpt>
      <trkpt lat="42.87052" lon="-0.37249">
        <ele>1904.5</ele>
        <time>2017-03-23T14:12:19Z</time>
      </trkpt>
      <trkpt lat="42.87059" lon="-0.37383">
        <ele>1870.4</ele>
        <time>2017-03-23T14:13:20Z</time>
      </trkpt>
      <trkpt lat="42.87053" lon="-0.37385">
        <ele>1868.5</ele>
        <time>2017-03-23T14:13:24Z</time>
      </trkpt>
      <trkpt lat="42.8705" lon="-0.37381">
        <ele>1868.9</ele>
        <time>2017-03-23T14:13:39Z</time>
      </trkpt>
      <trkpt lat="42.87044" lon="-0.37387">
        <ele>1868</ele>
        <time>2017-03-23T14:13:52Z</time>
      </trkpt>
      <trkpt lat="42.87053" lon="-0.37398">
        <ele>1860.8</ele>
        <time>2017-03-23T14:13:57Z</time>
      </trkpt>
      <trkpt lat="42.87049" lon="-0.37399">
        <ele>1862.2</ele>
        <time>2017-03-23T14:14:28Z</time>
      </trkpt>
      <trkpt lat="42.87124" lon="-0.37524">
        <ele>1828.1</ele>
        <time>2017-03-23T14:16:11Z</time>
      </trkpt>
      <trkpt lat="42.87123" lon="-0.37523">
        <ele>1828.6</ele>
        <time>2017-03-23T14:16:17Z</time>
      </trkpt>
      <trkpt lat="42.87226" lon="-0.37871">
        <ele>1754.5</ele>
        <time>2017-03-23T14:18:34Z</time>
      </trkpt>
      <trkpt lat="42.87225" lon="-0.37872">
        <ele>1754.5</ele>
        <time>2017-03-23T14:18:35Z</time>
      </trkpt>
      <trkpt lat="42.87222" lon="-0.37866">
        <ele>1756.5</ele>
        <time>2017-03-23T14:18:50Z</time>
      </trkpt>
      <trkpt lat="42.87225" lon="-0.37868">
        <ele>1753.1</ele>
        <time>2017-03-23T14:19:15Z</time>
      </trkpt>
      <trkpt lat="42.87221" lon="-0.37881">
        <ele>1751.7</ele>
        <time>2017-03-23T14:19:31Z</time>
      </trkpt>
      <trkpt lat="42.87217" lon="-0.37881">
        <ele>1751.2</ele>
        <time>2017-03-23T14:19:52Z</time>
      </trkpt>
      <trkpt lat="42.87188" lon="-0.37992">
        <ele>1734.4</ele>
        <time>2017-03-23T14:20:23Z</time>
      </trkpt>
      <trkpt lat="42.87251" lon="-0.3805">
        <ele>1701.2</ele>
        <time>2017-03-23T14:20:39Z</time>
      </trkpt>
      <trkpt lat="42.87237" lon="-0.38057">
        <ele>1702.2</ele>
        <time>2017-03-23T14:21:11Z</time>
      </trkpt>
      <trkpt lat="42.87226" lon="-0.38131">
        <ele>1690.1</ele>
        <time>2017-03-23T14:21:25Z</time>
      </trkpt>
      <trkpt lat="42.87226" lon="-0.38125">
        <ele>1689.7</ele>
        <time>2017-03-23T14:21:35Z</time>
      </trkpt>
      <trkpt lat="42.87299" lon="-0.3832">
        <ele>1666.6</ele>
        <time>2017-03-23T14:22:44Z</time>
      </trkpt>
      <trkpt lat="42.87298" lon="-0.38316">
        <ele>1666.6</ele>
        <time>2017-03-23T14:23:08Z</time>
      </trkpt>
      <trkpt lat="42.87296" lon="-0.38331">
        <ele>1666.6</ele>
        <time>2017-03-23T14:24:40Z</time>
      </trkpt>
      <trkpt lat="42.87297" lon="-0.38329">
        <ele>1666.1</ele>
        <time>2017-03-23T14:25:30Z</time>
      </trkpt>
      <trkpt lat="42.87298" lon="-0.38458">
        <ele>1669.5</ele>
        <time>2017-03-23T14:29:25Z</time>
      </trkpt>
      <trkpt lat="42.87299" lon="-0.38446">
        <ele>1669.5</ele>
        <time>2017-03-23T14:30:18Z</time>
      </trkpt>
      <trkpt lat="42.87292" lon="-0.38452">
        <ele>1669</ele>
        <time>2017-03-23T14:30:57Z</time>
      </trkpt>
      <trkpt lat="42.87297" lon="-0.38487">
        <ele>1670.4</ele>
        <time>2017-03-23T14:31:41Z</time>
      </trkpt>
      <trkpt lat="42.87274" lon="-0.38499">
        <ele>1672.4</ele>
        <time>2017-03-23T14:32:57Z</time>
      </trkpt>
      <trkpt lat="42.87275" lon="-0.38495">
        <ele>1671.9</ele>
        <time>2017-03-23T14:33:42Z</time>
      </trkpt>
      <trkpt lat="42.87278" lon="-0.38495">
        <ele>1672.4</ele>
        <time>2017-03-23T14:33:59Z</time>
      </trkpt>
      <trkpt lat="42.87265" lon="-0.38495">
        <ele>1672.4</ele>
        <time>2017-03-23T14:35:50Z</time>
      </trkpt>
      <trkpt lat="42.87277" lon="-0.38493">
        <ele>1673.8</ele>
        <time>2017-03-23T14:38:00Z</time>
      </trkpt>
      <trkpt lat="42.87268" lon="-0.38522">
        <ele>1670.4</ele>
        <time>2017-03-23T14:38:51Z</time>
      </trkpt>
      <trkpt lat="42.8727" lon="-0.38523">
        <ele>1670</ele>
        <time>2017-03-23T14:39:12Z</time>
      </trkpt>
      <trkpt lat="42.87169" lon="-0.38601">
        <ele>1651.2</ele>
        <time>2017-03-23T14:44:27Z</time>
      </trkpt>
      <trkpt lat="42.87173" lon="-0.38599">
        <ele>1651.7</ele>
        <time>2017-03-23T14:45:00Z</time>
      </trkpt>
      <trkpt lat="42.87009" lon="-0.38535">
        <ele>1603.6</ele>
        <time>2017-03-23T14:48:51Z</time>
      </trkpt>
      <trkpt lat="42.87007" lon="-0.38539">
        <ele>1603.1</ele>
        <time>2017-03-23T14:49:24Z</time>
      </trkpt>
      <trkpt lat="42.86971" lon="-0.38537">
        <ele>1590.6</ele>
        <time>2017-03-23T14:50:16Z</time>
      </trkpt>
      <trkpt lat="42.87027" lon="-0.3865">
        <ele>1553.6</ele>
        <time>2017-03-23T14:52:57Z</time>
      </trkpt>
      <trkpt lat="42.86975" lon="-0.38664">
        <ele>1530.6</ele>
        <time>2017-03-23T14:54:25Z</time>
      </trkpt>
      <trkpt lat="42.86969" lon="-0.38683">
        <ele>1527.7</ele>
        <time>2017-03-23T14:54:38Z</time>
      </trkpt>
      <trkpt lat="42.87003" lon="-0.38782">
        <ele>1497.9</ele>
        <time>2017-03-23T14:56:27Z</time>
      </trkpt>
      <trkpt lat="42.86932" lon="-0.38796">
        <ele>1479.6</ele>
        <time>2017-03-23T14:57:23Z</time>
      </trkpt>
      <trkpt lat="42.86931" lon="-0.38794">
        <ele>1479.1</ele>
        <time>2017-03-23T14:57:24Z</time>
      </trkpt>
      <trkpt lat="42.8688" lon="-0.38784">
        <ele>1467.6</ele>
        <time>2017-03-23T14:58:08Z</time>
      </trkpt>
      <trkpt lat="42.86974" lon="-0.38872">
        <ele>1437.8</ele>
        <time>2017-03-23T15:00:10Z</time>
      </trkpt>
      <trkpt lat="42.86832" lon="-0.38845">
        <ele>1413.3</ele>
        <time>2017-03-23T15:02:42Z</time>
      </trkpt>
      <trkpt lat="42.86726" lon="-0.38915">
        <ele>1392.6</ele>
        <time>2017-03-23T15:04:44Z</time>
      </trkpt>
      <trkpt lat="42.86701" lon="-0.39105">
        <ele>1334.5</ele>
        <time>2017-03-23T15:08:34Z</time>
      </trkpt>
      <trkpt lat="42.86676" lon="-0.39095">
        <ele>1330.1</ele>
        <time>2017-03-23T15:09:44Z</time>
      </trkpt>
      <trkpt lat="42.86676" lon="-0.39094">
        <ele>1330.6</ele>
        <time>2017-03-23T15:10:09Z</time>
      </trkpt>
      <trkpt lat="42.86676" lon="-0.39094">
        <ele>1330.1</ele>
        <time>2017-03-23T15:10:35Z</time>
      </trkpt>
      <trkpt lat="42.86681" lon="-0.39089">
        <ele>1331.6</ele>
        <time>2017-03-23T15:11:08Z</time>
      </trkpt>
      <trkpt lat="42.86676" lon="-0.39091">
        <ele>1330.6</ele>
        <time>2017-03-23T15:11:24Z</time>
      </trkpt>
      <trkpt lat="42.86678" lon="-0.39096">
        <ele>1329.6</ele>
        <time>2017-03-23T15:12:08Z</time>
      </trkpt>
      <trkpt lat="42.86682" lon="-0.39094">
        <ele>1330.6</ele>
        <time>2017-03-23T15:12:35Z</time>
      </trkpt>
      <trkpt lat="42.86636" lon="-0.39115">
        <ele>1322</ele>
        <time>2017-03-23T15:14:50Z</time>
      </trkpt>
      <trkpt lat="42.86534" lon="-0.39248">
        <ele>1277.7</ele>
        <time>2017-03-23T15:17:21Z</time>
      </trkpt>
      <trkpt lat="42.8643" lon="-0.39148">
        <ele>1279.7</ele>
        <time>2017-03-23T15:19:27Z</time>
      </trkpt>
      <trkpt lat="42.86379" lon="-0.39141">
        <ele>1275.8</ele>
        <time>2017-03-23T15:20:10Z</time>
      </trkpt>
      <trkpt lat="42.86377" lon="-0.39138">
        <ele>1276.3</ele>
        <time>2017-03-23T15:20:14Z</time>
      </trkpt>
      <trkpt lat="42.86292" lon="-0.39143">
        <ele>1272.9</ele>
        <time>2017-03-23T15:21:31Z</time>
      </trkpt>
      <trkpt lat="42.86306" lon="-0.39173">
        <ele>1270</ele>
        <time>2017-03-23T15:21:57Z</time>
      </trkpt>
      <trkpt lat="42.86331" lon="-0.39169">
        <ele>1266.7</ele>
        <time>2017-03-23T15:22:31Z</time>
      </trkpt>
      <trkpt lat="42.86331" lon="-0.39167">
        <ele>1264.3</ele>
        <time>2017-03-23T15:22:48Z</time>
      </trkpt>
      <trkpt lat="42.86331" lon="-0.39171">
        <ele>1265.2</ele>
        <time>2017-03-23T15:23:31Z</time>
      </trkpt>
      <trkpt lat="42.86331" lon="-0.39167">
        <ele>1265.2</ele>
        <time>2017-03-23T15:24:08Z</time>
      </trkpt>
      <trkpt lat="42.86331" lon="-0.39169">
        <ele>1265.2</ele>
        <time>2017-03-23T15:24:58Z</time>
      </trkpt>
      <trkpt lat="42.8633" lon="-0.39166">
        <ele>1265.7</ele>
        <time>2017-03-23T15:25:39Z</time>
      </trkpt>
      <trkpt lat="42.86327" lon="-0.3917">
        <ele>1265.7</ele>
        <time>2017-03-23T15:28:39Z</time>
      </trkpt>
      <trkpt lat="42.8633" lon="-0.3917">
        <ele>1266.2</ele>
        <time>2017-03-23T15:29:38Z</time>
      </trkpt>
      <trkpt lat="42.8633" lon="-0.39169">
        <ele>1265.2</ele>
        <time>2017-03-23T15:30:33Z</time>
      </trkpt>
      <trkpt lat="42.8633" lon="-0.3917">
        <ele>1265.2</ele>
        <time>2017-03-23T15:31:26Z</time>
      </trkpt>
      <trkpt lat="42.86332" lon="-0.39166">
        <ele>1265.7</ele>
        <time>2017-03-23T15:33:59Z</time>
      </trkpt>
      <trkpt lat="42.86332" lon="-0.3917">
        <ele>1264.8</ele>
        <time>2017-03-23T15:35:26Z</time>
      </trkpt>
      <trkpt lat="42.86331" lon="-0.39168">
        <ele>1265.2</ele>
        <time>2017-03-23T15:36:27Z</time>
      </trkpt>
      <trkpt lat="42.86325" lon="-0.39179">
        <ele>1265.2</ele>
        <time>2017-03-23T15:37:38Z</time>
      </trkpt>
      <trkpt lat="42.86325" lon="-0.39174">
        <ele>1265.7</ele>
        <time>2017-03-23T15:38:17Z</time>
      </trkpt>
      <trkpt lat="42.86326" lon="-0.39185">
        <ele>1265.2</ele>
        <time>2017-03-23T15:39:22Z</time>
      </trkpt>
      <trkpt lat="42.86328" lon="-0.39172">
        <ele>1265.2</ele>
        <time>2017-03-23T15:42:12Z</time>
      </trkpt>
      <trkpt lat="42.86328" lon="-0.39173">
        <ele>1265.2</ele>
        <time>2017-03-23T15:43:05Z</time>
      </trkpt>
      <trkpt lat="42.86333" lon="-0.39167">
        <ele>1265.7</ele>
        <time>2017-03-23T15:43:59Z</time>
      </trkpt>
      <trkpt lat="42.86326" lon="-0.3917">
        <ele>1265.7</ele>
        <time>2017-03-23T15:44:49Z</time>
      </trkpt>
      <trkpt lat="42.86328" lon="-0.39174">
        <ele>1265.7</ele>
        <time>2017-03-23T15:45:30Z</time>
      </trkpt>
      <trkpt lat="42.86328" lon="-0.3917">
        <ele>1266.2</ele>
        <time>2017-03-23T15:47:00Z</time>
      </trkpt>
      <trkpt lat="42.8633" lon="-0.39176">
        <ele>1266.2</ele>
        <time>2017-03-23T15:47:43Z</time>
      </trkpt>
      <trkpt lat="42.86328" lon="-0.39172">
        <ele>1265.7</ele>
        <time>2017-03-23T15:48:29Z</time>
      </trkpt>
      <trkpt lat="42.86329" lon="-0.39175">
        <ele>1265.2</ele>
        <time>2017-03-23T15:49:05Z</time>
      </trkpt>
      <trkpt lat="42.86331" lon="-0.39173">
        <ele>1265.7</ele>
        <time>2017-03-23T15:49:59Z</time>
      </trkpt>
      <trkpt lat="42.86329" lon="-0.39176">
        <ele>1264.8</ele>
        <time>2017-03-23T15:51:22Z</time>
      </trkpt>
      <trkpt lat="42.86333" lon="-0.39172">
        <ele>1264.3</ele>
        <time>2017-03-23T15:52:07Z</time>
      </trkpt>
      <trkpt lat="42.86326" lon="-0.39176">
        <ele>1264.3</ele>
        <time>2017-03-23T15:53:34Z</time>
      </trkpt>
      <trkpt lat="42.86332" lon="-0.39175">
        <ele>1264.3</ele>
        <time>2017-03-23T15:55:13Z</time>
      </trkpt>
      <trkpt lat="42.86328" lon="-0.39174">
        <ele>1263.8</ele>
        <time>2017-03-23T15:55:49Z</time>
      </trkpt>
      <trkpt lat="42.86329" lon="-0.39176">
        <ele>1263.3</ele>
        <time>2017-03-23T15:56:26Z</time>
      </trkpt>
      <trkpt lat="42.86333" lon="-0.39168">
        <ele>1263.3</ele>
        <time>2017-03-23T15:56:56Z</time>
      </trkpt>
      <trkpt lat="42.86329" lon="-0.39167">
        <ele>1263.3</ele>
        <time>2017-03-23T15:57:30Z</time>
      </trkpt>
      <trkpt lat="42.86328" lon="-0.39172">
        <ele>1263.3</ele>
        <time>2017-03-23T15:58:47Z</time>
      </trkpt>
      <trkpt lat="42.8633" lon="-0.39167">
        <ele>1261.9</ele>
        <time>2017-03-23T15:59:02Z</time>
      </trkpt>
      <trkpt lat="42.86335" lon="-0.39169">
        <ele>1263.3</ele>
        <time>2017-03-23T15:59:20Z</time>
      </trkpt>
      <trkpt lat="42.86332" lon="-0.39164">
        <ele>1263.8</ele>
        <time>2017-03-23T16:00:02Z</time>
      </trkpt>
      <trkpt lat="42.86333" lon="-0.39166">
        <ele>1263.3</ele>
        <time>2017-03-23T16:00:44Z</time>
      </trkpt>
      <trkpt lat="42.86334" lon="-0.39163">
        <ele>1264.3</ele>
        <time>2017-03-23T16:01:40Z</time>
      </trkpt>
      <trkpt lat="42.86333" lon="-0.39168">
        <ele>1263.3</ele>
        <time>2017-03-23T16:03:15Z</time>
      </trkpt>
      <trkpt lat="42.86336" lon="-0.39165">
        <ele>1262.8</ele>
        <time>2017-03-23T16:03:54Z</time>
      </trkpt>
      <trkpt lat="42.86334" lon="-0.39169">
        <ele>1262.8</ele>
        <time>2017-03-23T16:04:36Z</time>
      </trkpt>
      <trkpt lat="42.86335" lon="-0.39168">
        <ele>1262.8</ele>
        <time>2017-03-23T16:05:26Z</time>
      </trkpt>
      <trkpt lat="42.86331" lon="-0.39165">
        <ele>1262.8</ele>
        <time>2017-03-23T16:06:14Z</time>
      </trkpt>
      <trkpt lat="42.8634" lon="-0.39165">
        <ele>1262.4</ele>
        <time>2017-03-23T16:07:41Z</time>
      </trkpt>
      <trkpt lat="42.86335" lon="-0.39166">
        <ele>1261.9</ele>
        <time>2017-03-23T16:08:27Z</time>
      </trkpt>
      <trkpt lat="42.86334" lon="-0.39163">
        <ele>1261.9</ele>
        <time>2017-03-23T16:09:14Z</time>
      </trkpt>
      <trkpt lat="42.86334" lon="-0.39169">
        <ele>1262.8</ele>
        <time>2017-03-23T16:11:19Z</time>
      </trkpt>
      <trkpt lat="42.86335" lon="-0.39167">
        <ele>1263.3</ele>
        <time>2017-03-23T16:12:00Z</time>
      </trkpt>
      <trkpt lat="42.86337" lon="-0.39168">
        <ele>1262.4</ele>
        <time>2017-03-23T16:12:34Z</time>
      </trkpt>
      <trkpt lat="42.86333" lon="-0.39171">
        <ele>1262.8</ele>
        <time>2017-03-23T16:13:30Z</time>
      </trkpt>
      <trkpt lat="42.86338" lon="-0.39167">
        <ele>1262.8</ele>
        <time>2017-03-23T16:14:27Z</time>
      </trkpt>
      <trkpt lat="42.86335" lon="-0.39171">
        <ele>1262.4</ele>
        <time>2017-03-23T16:15:14Z</time>
      </trkpt>
      <trkpt lat="42.86335" lon="-0.39169">
        <ele>1262.4</ele>
        <time>2017-03-23T16:16:03Z</time>
      </trkpt>
      <trkpt lat="42.86328" lon="-0.39174">
        <ele>1261.4</ele>
        <time>2017-03-23T16:16:56Z</time>
      </trkpt>
      <trkpt lat="42.86331" lon="-0.39174">
        <ele>1261.4</ele>
        <time>2017-03-23T16:17:37Z</time>
      </trkpt>
      <trkpt lat="42.86333" lon="-0.39166">
        <ele>1259.9</ele>
        <time>2017-03-23T16:19:09Z</time>
      </trkpt>
    </trkseg>
  </trk>
</gpx>